Time;durP1;ratioP1;P1;durP2;ratioP2;P2;SDS_P1;SDS_P2;PMS_P1;PMS_P2;Temp;Humidity;BMP_temperature;BMP_pressure;BME280_temperature;BME280_humidity;BME280_pressure;Samples;Min_cycle;Max_cycle;Signal;HPM_P1;HPM_P2
2022/09/06 00:01:29;;;;;;;0.57;0.52;;;;;;;20.79;53.25;101404.78;5089220;28;20128;-66
2022/09/06 00:03:55;;;;;;;1.13;0.43;;;;;;;20.91;53.08;101392.53;5088420;28;20031;-65
2022/09/06 00:06:20;;;;;;;1.55;0.47;;;;;;;20.83;53.41;101396.56;5089444;28;20044;-66
2022/09/06 00:08:47;;;;;;;1.15;0.50;;;;;;;20.78;53.71;101386.81;5088103;28;20043;-65
2022/09/06 00:11:14;;;;;;;1.40;0.38;;;;;;;20.82;53.34;101384.81;5090344;28;20667;-64
2022/09/06 00:13:39;;;;;;;0.65;0.40;;;;;;;20.66;53.64;101379.88;5088878;28;20031;-65
2022/09/06 00:16:14;;;;;;;0.47;0.35;;;;;;;20.74;53.58;101385.28;5091589;28;20407;-64
2022/09/06 00:18:41;;;;;;;0.50;0.40;;;;;;;20.72;53.54;101380.22;5080226;28;20051;-65
2022/09/06 00:21:27;;;;;;;0.47;0.38;;;;;;;20.79;53.64;101382.13;5096886;28;20507;-65
2022/09/06 00:23:52;;;;;;;1.00;0.50;;;;;;;20.81;53.31;101380.50;5088269;28;20373;-66
2022/09/06 00:26:19;;;;;;;0.82;0.50;;;;;;;20.73;53.62;101389.97;5090037;28;20040;-65
2022/09/06 00:28:44;;;;;;;2.15;0.50;;;;;;;20.79;53.41;101385.63;5086865;28;20073;-65
2022/09/06 00:31:19;;;;;;;0.65;0.40;;;;;;;20.69;53.51;101376.31;5090770;28;20509;-64
2022/09/06 00:33:44;;;;;;;0.38;0.35;;;;;;;20.72;53.39;101373.97;5087070;28;20040;-64
2022/09/06 00:36:11;;;;;;;0.30;0.30;;;;;;;20.79;53.17;101382.88;5088999;28;20111;-64
2022/09/06 00:38:37;;;;;;;0.88;0.60;;;;;;;20.66;53.33;101388.09;5088455;28;20040;-64
2022/09/06 00:41:04;;;;;;;1.45;0.50;;;;;;;20.63;53.55;101371.72;5084763;28;20476;-64
2022/09/06 00:43:29;;;;;;;0.40;0.30;;;;;;;20.53;53.37;101375.31;5085784;28;20399;-64
2022/09/06 00:45:56;;;;;;;0.65;0.50;;;;;;;20.54;53.89;101372.16;5093531;28;20111;-64
2022/09/06 00:48:22;;;;;;;0.40;0.30;;;;;;;20.48;53.93;101370.25;5092757;28;20036;-64
2022/09/06 00:50:50;;;;;;;0.80;0.50;;;;;;;20.54;53.40;101380.38;5088980;28;20366;-64
2022/09/06 00:53:18;;;;;;;0.63;0.43;;;;;;;20.49;53.56;101375.34;5090281;28;20035;-64
2022/09/06 00:55:44;;;;;;;0.55;0.40;;;;;;;20.42;54.29;101377.38;5094846;28;20024;-64
2022/09/06 00:58:09;;;;;;;0.73;0.40;;;;;;;20.40;53.78;101368.78;5093262;28;20561;-64
2022/09/06 01:00:35;;;;;;;0.50;0.35;;;;;;;20.31;53.83;101371.19;5091183;28;20032;-63
2022/09/06 01:03:01;;;;;;;1.17;0.55;;;;;;;20.40;53.69;101366.06;5093553;28;20028;-63
2022/09/06 01:05:48;;;;;;;0.40;0.40;;;;;;;20.40;53.76;101368.78;5096618;28;20067;-63
2022/09/06 01:08:18;;;;;;;0.82;0.60;;;;;;;20.46;53.90;101367.19;5093124;28;20032;-63
2022/09/06 01:11:18;;;;;;;0.70;0.60;;;;;;;20.43;53.65;101357.03;5091581;28;20062;-64
2022/09/06 01:14:08;;;;;;;1.45;0.43;;;;;;;20.24;53.49;101363.03;5090135;28;20028;-64
2022/09/06 01:16:50;;;;;;;0.77;0.57;;;;;;;20.29;53.09;101357.91;5090494;28;20039;-63
2022/09/06 01:19:31;;;;;;;0.90;0.55;;;;;;;20.37;53.52;101358.63;5093106;28;20044;-63
2022/09/06 01:22:28;;;;;;;2.17;0.60;;;;;;;20.39;52.96;101348.84;5091342;28;20118;-64
2022/09/06 01:24:53;;;;;;;0.60;0.52;;;;;;;20.37;53.52;101350.41;5090659;28;20046;-64
2022/09/06 01:27:18;;;;;;;2.90;0.50;;;;;;;20.39;53.19;101348.84;5087024;28;20032;-63
2022/09/06 01:29:50;;;;;;;0.82;0.45;;;;;;;20.45;52.84;101354.66;5095095;28;20501;-63
2022/09/06 01:32:46;;;;;;;0.93;0.40;;;;;;;20.35;52.81;101361.78;5092591;28;20048;-64
2022/09/06 01:35:53;;;;;;;1.55;0.80;;;;;;;20.34;53.28;101353.97;5086492;28;20050;-63
2022/09/06 01:38:18;;;;;;;0.75;0.60;;;;;;;20.39;52.76;101356.28;5083550;28;20055;-64
2022/09/06 01:40:44;;;;;;;1.63;0.65;;;;;;;20.31;52.78;101355.56;5087358;28;20054;-64
2022/09/06 01:43:12;;;;;;;0.68;0.50;;;;;;;20.39;52.40;101348.84;5091989;28;20043;-63
2022/09/06 01:46:07;;;;;;;0.60;0.50;;;;;;;20.34;52.12;101348.50;5093093;28;20059;-64
2022/09/06 01:48:32;;;;;;;0.80;0.57;;;;;;;20.36;52.49;101355.09;5089396;28;20479;-63
2022/09/06 01:51:09;;;;;;;2.15;0.82;;;;;;;20.25;52.38;101353.63;5092121;28;20067;-64
2022/09/06 01:53:50;;;;;;;0.80;0.70;;;;;;;20.25;52.50;101357.16;5084989;28;20036;-64
2022/09/06 01:56:37;;;;;;;0.40;0.40;;;;;;;20.22;52.32;101362.66;5090636;28;20062;-64
2022/09/06 01:59:33;;;;;;;0.70;0.65;;;;;;;20.08;52.83;101363.53;5092383;28;20470;-64
2022/09/06 02:02:10;;;;;;;0.85;0.47;;;;;;;20.03;52.67;101366.69;5089104;28;20028;-63
2022/09/06 02:04:51;;;;;;;1.55;0.73;;;;;;;20.07;52.59;101359.25;5086959;28;20062;-64
2022/09/06 02:07:29;;;;;;;0.82;0.40;;;;;;;20.12;52.57;101366.22;5085945;28;20035;-63
2022/09/06 02:10:07;;;;;;;0.82;0.57;;;;;;;20.15;52.29;101363.47;5091149;28;20031;-63
2022/09/06 02:12:36;;;;;;;0.80;0.50;;;;;;;20.15;52.41;101358.00;5091600;28;20047;-64
2022/09/06 02:15:25;;;;;;;1.05;0.65;;;;;;;20.06;52.39;101351.41;5091135;28;20028;-64
2022/09/06 02:18:05;;;;;;;3.10;0.77;;;;;;;20.07;52.50;101350.25;5092860;28;20054;-64
2022/09/06 02:20:34;;;;;;;1.73;0.73;;;;;;;20.06;52.06;101348.69;5091468;28;20062;-64
2022/09/06 02:23:04;;;;;;;0.90;0.50;;;;;;;20.13;51.69;101351.38;5090493;28;20485;-63
2022/09/06 02:25:44;;;;;;;0.88;0.57;;;;;;;20.14;51.92;101347.44;5087736;28;20093;-64
2022/09/06 02:28:09;;;;;;;0.68;0.60;;;;;;;20.16;51.65;101340.41;5088142;28;20028;-64
2022/09/06 02:30:40;;;;;;;2.58;0.82;;;;;;;20.06;51.46;101332.28;5083846;28;20538;-63
2022/09/06 02:33:18;;;;;;;1.00;0.50;;;;;;;19.93;51.01;101345.66;5097173;28;20035;-63
2022/09/06 02:35:47;;;;;;;0.82;0.50;;;;;;;19.77;51.64;101348.88;5084548;28;20035;-64
2022/09/06 02:38:13;;;;;;;1.00;0.50;;;;;;;19.85;51.66;101344.16;5092851;28;20181;-64
2022/09/06 02:40:40;;;;;;;0.63;0.40;;;;;;;19.91;51.77;101339.03;5100019;28;20480;-64
2022/09/06 02:43:05;;;;;;;0.75;0.50;;;;;;;20.01;51.07;101338.19;5096148;28;20549;-64
2022/09/06 02:45:31;;;;;;;1.38;0.65;;;;;;;19.99;50.57;101329.59;5090971;28;20039;-63
2022/09/06 02:47:56;;;;;;;2.92;0.77;;;;;;;19.99;50.26;101332.34;5102494;28;20044;-65
2022/09/06 02:50:22;;;;;;;0.68;0.60;;;;;;;20.02;50.26;101336.97;5085710;28;20096;-65
2022/09/06 02:53:07;;;;;;;0.60;0.52;;;;;;;19.94;50.66;101336.25;5099037;28;20155;-65
2022/09/06 02:55:33;;;;;;;0.85;0.60;;;;;;;19.99;50.57;101335.84;5091054;28;20016;-64
2022/09/06 02:57:58;;;;;;;1.38;0.70;;;;;;;19.97;50.24;101334.69;5089901;28;20433;-65
2022/09/06 03:00:25;;;;;;;0.98;0.63;;;;;;;19.99;50.16;101330.38;5087783;28;20548;-65
2022/09/06 03:02:50;;;;;;;1.52;0.50;;;;;;;19.92;50.03;101322.22;5093424;28;20032;-65
2022/09/06 03:05:16;;;;;;;1.73;0.88;;;;;;;19.89;50.29;101322.25;5090214;28;20020;-65
2022/09/06 03:07:41;;;;;;;0.73;0.73;;;;;;;19.88;50.61;101316.00;5087154;28;20031;-65
2022/09/06 03:10:07;;;;;;;1.60;0.50;;;;;;;19.89;50.09;101319.50;5099763;22;20323;-66
2022/09/06 03:12:33;;;;;;;0.70;0.70;;;;;;;19.93;49.61;101312.06;5084669;28;20192;-65
2022/09/06 03:14:58;;;;;;;1.92;0.70;;;;;;;19.97;49.32;101313.59;5087616;28;20584;-65
2022/09/06 03:17:23;;;;;;;1.15;0.68;;;;;;;20.05;48.85;101317.84;5087802;28;20043;-65
2022/09/06 03:19:49;;;;;;;2.63;1.27;;;;;;;20.04;48.94;101315.47;5087425;28;20144;-65
2022/09/06 03:22:14;;;;;;;2.53;0.57;;;;;;;19.92;48.77;101311.28;5083978;28;20044;-66
2022/09/06 03:24:40;;;;;;;1.05;0.50;;;;;;;19.89;49.07;101309.34;5084923;28;20384;-64
2022/09/06 03:27:05;;;;;;;2.10;0.50;;;;;;;19.91;48.74;101304.25;5077789;28;20384;-65
2022/09/06 03:29:31;;;;;;;0.63;0.60;;;;;;;19.88;48.78;101299.59;5085880;28;20112;-65
2022/09/06 03:31:56;;;;;;;0.65;0.52;;;;;;;19.87;48.58;101297.25;5088992;28;20032;-65
2022/09/06 03:34:21;;;;;;;1.90;0.57;;;;;;;19.77;48.48;101296.94;5088491;28;20027;-64
2022/09/06 03:36:47;;;;;;;0.55;0.35;;;;;;;19.68;48.27;101293.88;5081126;28;20028;-64
2022/09/06 03:39:12;;;;;;;2.35;0.60;;;;;;;19.77;48.49;101293.41;5090797;28;20028;-64
2022/09/06 03:41:38;;;;;;;0.75;0.73;;;;;;;19.68;48.20;101293.88;5090748;28;20399;-64
2022/09/06 03:44:04;;;;;;;0.57;0.45;;;;;;;19.72;48.27;101293.84;5081896;28;20064;-65
2022/09/06 03:46:29;;;;;;;1.38;0.75;;;;;;;19.67;48.19;101295.03;5088911;28;20028;-64
2022/09/06 03:48:56;;;;;;;0.50;0.50;;;;;;;19.76;48.25;101305.53;5090374;28;20427;-64
2022/09/06 03:51:21;;;;;;;0.98;0.50;;;;;;;19.75;48.10;101295.78;5090756;28;20085;-64
2022/09/06 03:53:47;;;;;;;0.75;0.45;;;;;;;19.76;48.01;101306.31;5086819;28;20039;-64
2022/09/06 03:56:13;;;;;;;0.80;0.50;;;;;;;19.67;47.65;101310.66;5090514;28;20040;-64
2022/09/06 03:58:39;;;;;;;0.98;0.60;;;;;;;19.66;47.78;101307.19;5090547;28;20028;-64
2022/09/06 04:01:09;;;;;;;0.70;0.45;;;;;;;19.68;47.69;101304.81;5083888;28;20461;-64
2022/09/06 04:03:36;;;;;;;1.27;0.67;;;;;;;19.65;48.03;101297.41;5080504;28;20081;-64
2022/09/06 04:06:02;;;;;;;0.40;0.30;;;;;;;19.65;47.68;101308.34;5085992;28;20388;-64
2022/09/06 04:08:28;;;;;;;0.50;0.50;;;;;;;19.67;47.35;101300.50;5089352;28;20039;-64
2022/09/06 04:10:58;;;;;;;1.33;0.50;;;;;;;19.67;47.65;101300.50;5086494;28;20062;-64
2022/09/06 04:13:24;;;;;;;0.90;0.60;;;;;;;19.64;47.46;101312.25;5089784;28;20507;-64
2022/09/06 04:15:51;;;;;;;0.77;0.50;;;;;;;19.70;47.43;101293.47;5090429;28;20038;-64
2022/09/06 04:18:17;;;;;;;1.15;0.60;;;;;;;19.66;47.18;101292.72;5089946;28;20467;-64
2022/09/06 04:20:46;;;;;;;0.85;0.47;;;;;;;19.63;47.36;101298.97;5079998;28;20115;-64
2022/09/06 04:23:11;;;;;;;0.47;0.38;;;;;;;19.37;47.65;101311.25;5084229;28;20032;-64
2022/09/06 04:25:37;;;;;;;2.92;0.47;;;;;;;19.47;47.42;101306.91;5089344;28;20377;-65
2022/09/06 04:28:02;;;;;;;0.63;0.40;;;;;;;19.50;47.50;101300.63;5091113;28;20036;-64
2022/09/06 04:30:28;;;;;;;1.38;0.60;;;;;;;19.39;47.06;101314.34;5092133;28;20024;-64
2022/09/06 04:32:53;;;;;;;0.68;0.30;;;;;;;19.29;47.40;101303.44;5087866;28;20028;-64
2022/09/06 04:35:18;;;;;;;0.65;0.63;;;;;;;19.17;47.27;101306.59;5093356;28;20031;-64
2022/09/06 04:37:44;;;;;;;1.85;0.45;;;;;;;19.15;47.45;101301.53;5094635;28;20032;-64
2022/09/06 04:40:09;;;;;;;1.05;0.57;;;;;;;19.13;47.73;101303.09;5092224;28;20036;-64
2022/09/06 04:42:35;;;;;;;0.95;0.60;;;;;;;19.18;47.90;101306.19;5092882;28;20054;-64
2022/09/06 04:45:00;;;;;;;0.50;0.40;;;;;;;19.28;47.96;101310.09;5088604;28;20047;-64
2022/09/06 04:47:26;;;;;;;0.60;0.55;;;;;;;19.27;47.57;101303.84;5093873;28;20511;-64
2022/09/06 04:49:52;;;;;;;0.93;0.43;;;;;;;19.34;47.28;101292.91;5088717;28;20019;-65
2022/09/06 04:52:18;;;;;;;0.40;0.40;;;;;;;19.31;47.73;101298.34;5087006;28;20061;-65
2022/09/06 04:54:43;;;;;;;2.03;0.55;;;;;;;19.23;47.20;101292.16;5089668;28;20098;-64
2022/09/06 04:57:09;;;;;;;0.55;0.50;;;;;;;19.22;47.76;101285.13;5090295;28;20032;-64
2022/09/06 04:59:35;;;;;;;1.00;0.50;;;;;;;19.30;47.40;101280.41;5089913;28;20028;-64
2022/09/06 05:02:00;;;;;;;0.90;0.30;;;;;;;19.23;47.73;101285.91;5088194;28;20147;-64
2022/09/06 05:04:26;;;;;;;0.30;0.20;;;;;;;19.19;47.47;101285.94;5088763;28;20620;-64
2022/09/06 05:07:05;;;;;;;0.32;0.32;;;;;;;19.23;47.57;101273.03;5084364;28;20038;-64
2022/09/06 05:09:31;;;;;;;0.55;0.45;;;;;;;19.19;47.67;101280.47;5087244;28;20139;-64
2022/09/06 05:11:57;;;;;;;0.40;0.40;;;;;;;19.29;47.58;101293.28;5079733;28;20124;-64
2022/09/06 05:14:22;;;;;;;2.45;0.68;;;;;;;19.29;47.27;101292.50;5087271;28;20107;-64
2022/09/06 05:16:49;;;;;;;0.70;0.45;;;;;;;19.17;47.83;101296.47;5074779;28;20039;-64
2022/09/06 05:19:15;;;;;;;1.02;0.40;;;;;;;19.19;47.41;101301.53;5090878;28;20066;-64
2022/09/06 05:21:40;;;;;;;0.93;0.40;;;;;;;19.20;48.12;101306.59;5081315;28;20036;-65
2022/09/06 05:24:05;;;;;;;1.02;0.50;;;;;;;19.30;47.71;101296.81;5086688;28;20032;-64
2022/09/06 05:26:31;;;;;;;0.30;0.30;;;;;;;19.29;48.13;101304.22;5085155;28;20027;-64
2022/09/06 05:28:56;;;;;;;5.20;0.50;;;;;;;19.34;47.76;101313.97;5091499;28;20544;-64
2022/09/06 05:31:30;;;;;;;0.35;0.35;;;;;;;19.41;47.96;101308.47;5080914;28;20032;-64
2022/09/06 05:33:56;;;;;;;0.90;0.52;;;;;;;19.46;47.35;101299.84;5083976;28;20529;-64
2022/09/06 05:36:24;;;;;;;0.57;0.40;;;;;;;19.43;46.70;101306.91;5080865;28;20043;-65
2022/09/06 05:38:50;;;;;;;0.50;0.43;;;;;;;19.39;47.42;101303.44;5084717;28;20032;-64
2022/09/06 05:41:16;;;;;;;0.32;0.32;;;;;;;19.29;47.99;101306.94;5084369;28;20036;-64
2022/09/06 05:43:42;;;;;;;3.72;0.30;;;;;;;19.35;47.72;101310.06;5084340;28;20499;-64
2022/09/06 05:46:09;;;;;;;0.77;0.30;;;;;;;19.30;47.51;101307.75;5089713;28;20427;-64
2022/09/06 05:48:34;;;;;;;0.40;0.20;;;;;;;19.33;47.40;101309.69;5091891;28;20549;-64
2022/09/06 05:51:01;;;;;;;0.40;0.13;;;;;;;19.41;46.90;101306.53;5091540;28;20115;-65
2022/09/06 05:53:33;;;;;;;1.17;0.90;;;;;;;19.40;47.05;101302.25;5089937;28;20028;-64
2022/09/06 05:55:58;;;;;;;0.52;0.30;;;;;;;19.31;47.19;101312.81;5088207;28;20040;-65
2022/09/06 05:58:24;;;;;;;3.00;0.40;;;;;;;19.31;47.19;101312.81;5091808;28;20120;-64
2022/09/06 06:00:49;;;;;;;1.17;0.40;;;;;;;19.26;47.26;101307.72;5087771;28;20043;-64
2022/09/06 06:03:15;;;;;;;0.32;0.32;;;;;;;19.24;47.40;101303.88;5080620;28;20043;-65
2022/09/06 06:05:45;;;;;;;0.80;0.40;;;;;;;19.26;47.66;101306.97;5091098;28;20069;-64
2022/09/06 06:08:11;;;;;;;1.88;0.68;;;;;;;19.43;47.29;101295.22;5091145;28;20055;-65
2022/09/06 06:10:38;;;;;;;0.85;0.40;;;;;;;19.53;47.36;101294.38;5090782;28;20082;-64
2022/09/06 06:13:03;;;;;;;1.15;0.40;;;;;;;19.57;47.27;101300.56;5087785;28;20043;-65
2022/09/06 06:15:31;;;;;;;0.75;0.60;;;;;;;19.52;47.37;101292.81;5090134;28;20415;-64
2022/09/06 06:17:56;;;;;;;0.52;0.38;;;;;;;19.38;47.53;101296.38;5072191;28;20040;-64
2022/09/06 06:20:22;;;;;;;0.47;0.30;;;;;;;19.44;48.06;101300.25;5089541;28;20028;-64
2022/09/06 06:22:47;;;;;;;0.60;0.60;;;;;;;19.48;47.61;101295.56;5091372;28;20043;-65
2022/09/06 06:25:13;;;;;;;0.75;0.30;;;;;;;19.51;47.71;101302.19;5086252;28;20024;-65
2022/09/06 06:27:38;;;;;;;1.20;0.50;;;;;;;19.58;47.23;101305.66;5089989;28;20368;-65
2022/09/06 06:30:04;;;;;;;0.32;0.30;;;;;;;19.60;47.67;101294.31;5086398;28;20060;-65
2022/09/06 06:32:29;;;;;;;0.40;0.38;;;;;;;19.63;47.57;101298.97;5089492;28;20836;-64
2022/09/06 06:34:55;;;;;;;0.30;0.30;;;;;;;19.72;47.48;101302.06;5089183;28;20024;-65
2022/09/06 06:37:20;;;;;;;0.40;0.25;;;;;;;19.77;47.80;101298.88;5090793;28;20511;-65
2022/09/06 06:39:46;;;;;;;0.20;0.20;;;;;;;19.94;47.48;101310.91;5089781;28;20024;-64
2022/09/06 06:42:11;;;;;;;0.30;0.30;;;;;;;20.07;47.46;101304.53;5091419;28;20071;-65
2022/09/06 06:44:47;;;;;;;0.45;0.43;;;;;;;20.08;47.49;101302.56;5088491;28;20027;-64
2022/09/06 06:47:13;;;;;;;0.50;0.40;;;;;;;20.20;47.72;101294.69;5089341;28;20040;-65
2022/09/06 06:49:38;;;;;;;2.97;0.40;;;;;;;20.04;47.12;101285.41;5091239;28;20119;-65
2022/09/06 06:52:04;;;;;;;1.95;0.68;;;;;;;20.19;47.10;101282.16;5089754;28;20055;-64
2022/09/06 06:54:29;;;;;;;2.25;0.38;;;;;;;20.22;47.20;101291.53;5083084;28;20046;-65
2022/09/06 06:56:55;;;;;;;0.90;0.40;;;;;;;20.11;47.21;101277.91;5087025;28;20040;-65
2022/09/06 06:59:20;;;;;;;0.65;0.35;;;;;;;20.08;47.12;101284.19;5088920;28;20028;-65
2022/09/06 07:01:46;;;;;;;0.82;0.38;;;;;;;20.20;47.37;101285.69;5082856;28;20516;-65
2022/09/06 07:04:13;;;;;;;0.55;0.45;;;;;;;20.26;47.52;101286.81;5087700;28;20020;-65
2022/09/06 07:06:46;;;;;;;0.50;0.45;;;;;;;20.20;47.55;101286.47;5090728;28;20028;-64
2022/09/06 07:09:12;;;;;;;1.27;0.75;;;;;;;20.28;47.46;101268.81;5089387;28;20105;-64
2022/09/06 07:11:37;;;;;;;0.55;0.40;;;;;;;20.23;47.69;101276.66;5085538;28;20052;-65
2022/09/06 07:14:03;;;;;;;0.50;0.32;;;;;;;20.25;47.72;101280.56;5089450;28;20140;-65
2022/09/06 07:16:28;;;;;;;0.73;0.50;;;;;;;20.21;47.77;101279.06;5090196;28;20051;-64
2022/09/06 07:18:54;;;;;;;0.35;0.35;;;;;;;20.14;48.06;101276.34;5090698;28;20081;-64
2022/09/06 07:21:25;;;;;;;0.30;0.30;;;;;;;20.26;47.98;101273.13;5086180;28;20036;-64
2022/09/06 07:23:52;;;;;;;0.38;0.38;;;;;;;20.19;48.31;101278.69;5080667;28;20028;-65
2022/09/06 07:26:26;;;;;;;1.13;0.47;;;;;;;20.22;48.32;101269.66;5088095;28;20040;-64
2022/09/06 07:28:56;;;;;;;0.43;0.30;;;;;;;20.14;48.07;101270.84;5088589;28;20313;-64
2022/09/06 07:31:22;;;;;;;0.50;0.40;;;;;;;20.24;48.15;101278.22;5089811;28;20455;-64
2022/09/06 07:33:49;;;;;;;0.73;0.40;;;;;;;20.29;48.61;101281.31;5088963;28;20016;-65
2022/09/06 07:36:15;;;;;;;0.75;0.30;;;;;;;20.38;48.53;101280.84;5088262;28;20080;-64
2022/09/06 07:38:40;;;;;;;0.30;0.30;;;;;;;20.39;47.86;101280.44;5086774;28;20119;-64
2022/09/06 07:41:08;;;;;;;1.05;0.40;;;;;;;20.38;48.72;101284.34;5082594;28;20044;-64
2022/09/06 07:43:34;;;;;;;0.35;0.35;;;;;;;20.43;48.38;101285.84;5072141;28;20055;-64
2022/09/06 07:46:05;;;;;;;0.82;0.50;;;;;;;20.28;48.32;101279.75;5081622;28;20063;-65
2022/09/06 07:48:31;;;;;;;;;;;;;;;20.16;48.55;101282.97;5075452;28;20055;-65
2022/09/06 07:51:05;;;;;;;0.43;0.30;;;;;;;20.11;48.39;101290.81;5085726;28;20038;-64
2022/09/06 07:53:31;;;;;;;1.23;0.50;;;;;;;20.14;48.90;101290.00;5075750;28;20123;-65
2022/09/06 07:55:57;;;;;;;3.90;0.63;;;;;;;20.22;49.00;101286.06;5086536;28;20115;-64
2022/09/06 07:58:23;;;;;;;0.57;0.40;;;;;;;20.23;49.11;101288.38;5088350;28;20036;-64
2022/09/06 08:00:48;;;;;;;0.45;0.40;;;;;;;19.97;48.98;101280.78;5079068;28;20101;-64
2022/09/06 08:03:13;;;;;;;0.50;0.30;;;;;;;20.13;49.54;101274.78;5086464;28;20063;-64
2022/09/06 08:05:39;;;;;;;0.80;0.43;;;;;;;20.28;49.87;101285.22;5089006;28;20223;-64
2022/09/06 08:08:04;;;;;;;0.98;0.50;;;;;;;20.21;49.32;101279.81;5076881;28;20036;-64
2022/09/06 08:10:30;;;;;;;1.45;0.68;;;;;;;20.35;49.32;101285.16;5073171;28;20036;-64
2022/09/06 08:12:55;;;;;;;0.75;0.40;;;;;;;20.48;49.08;101283.47;5084210;28;20036;-64
2022/09/06 08:15:21;;;;;;;0.70;0.43;;;;;;;20.69;49.21;101282.47;5071532;28;20043;-65
2022/09/06 08:17:48;;;;;;;1.40;0.50;;;;;;;20.72;49.40;101287.13;5075840;28;20132;-65
2022/09/06 08:20:13;;;;;;;3.53;0.40;;;;;;;20.94;49.17;101285.72;5082312;28;20082;-66
2022/09/06 08:22:39;;;;;;;1.55;0.50;;;;;;;21.07;49.31;101289.47;5086132;28;20055;-65
2022/09/06 08:25:05;;;;;;;1.38;0.50;;;;;;;21.27;48.51;101298.59;5080758;28;20532;-66
2022/09/06 08:27:30;;;;;;;0.52;0.40;;;;;;;21.25;48.80;101289.25;5077382;28;20036;-66
2022/09/06 08:29:55;;;;;;;2.92;0.57;;;;;;;21.17;48.43;101296.00;5074742;28;20068;-65
2022/09/06 08:32:21;;;;;;;0.90;0.65;;;;;;;21.34;48.39;101301.28;5075739;28;20036;-64
2022/09/06 08:34:46;;;;;;;1.15;0.60;;;;;;;21.46;47.90;101308.94;5062327;28;20188;-66
2022/09/06 08:37:12;;;;;;;0.63;0.38;;;;;;;21.48;47.99;101301.09;5079390;28;20505;-65
2022/09/06 08:39:37;;;;;;;0.70;0.47;;;;;;;21.47;47.86;101310.47;5078579;28;20042;-66
2022/09/06 08:42:05;;;;;;;1.08;0.60;;;;;;;21.56;47.94;101297.03;5076219;28;20044;-65
2022/09/06 08:44:51;;;;;;;3.60;0.60;;;;;;;21.47;48.67;101304.22;5076149;28;20115;-65
2022/09/06 08:47:19;;;;;;;1.23;0.70;;;;;;;21.62;48.39;101310.28;5075373;28;20404;-65
2022/09/06 08:49:47;;;;;;;0.52;0.50;;;;;;;21.58;47.88;101304.06;5077123;28;20040;-65
2022/09/06 08:52:37;;;;;;;2.55;0.40;;;;;;;21.63;47.71;101306.34;5080259;28;20036;-64
2022/09/06 08:55:12;;;;;;;0.60;0.55;;;;;;;21.67;48.63;101301.59;5082797;28;20079;-65
2022/09/06 08:58:01;;;;;;;0.43;0.40;;;;;;;21.68;48.65;101297.66;5083065;28;20051;-65
2022/09/06 09:00:28;;;;;;;2.13;0.52;;;;;;;21.59;48.50;101298.16;5094518;28;20028;-64
2022/09/06 09:03:05;;;;;;;0.65;0.40;;;;;;;21.66;48.37;101295.31;5076689;28;20047;-63
2022/09/06 09:05:33;;;;;;;1.17;0.70;;;;;;;21.61;48.91;101298.53;5084792;28;20040;-63
2022/09/06 09:08:02;;;;;;;0.57;0.40;;;;;;;21.58;48.82;101297.38;5087876;28;20036;-65
2022/09/06 09:10:31;;;;;;;0.60;0.60;;;;;;;21.50;48.54;101297.91;5086991;28;20076;-64
2022/09/06 09:13:01;;;;;;;0.80;0.70;;;;;;;21.52;48.89;101287.31;5110244;22;20495;-66
2022/09/06 09:15:27;;;;;;;0.73;0.68;;;;;;;21.42;48.84;101294.50;5088389;28;20097;-66
2022/09/06 09:17:53;;;;;;;0.88;0.50;;;;;;;21.34;49.10;101293.03;5090913;28;20086;-66
2022/09/06 09:20:20;;;;;;;0.50;0.47;;;;;;;21.31;49.35;101279.41;5081031;28;20036;-66
2022/09/06 09:22:47;;;;;;;1.20;0.50;;;;;;;21.32;49.26;101283.69;5089304;28;20074;-66
2022/09/06 09:25:18;;;;;;;1.17;0.50;;;;;;;21.28;49.36;101275.50;5087382;28;20034;-67
2022/09/06 09:27:44;;;;;;;0.60;0.50;;;;;;;21.21;49.70;101275.63;5085078;28;20044;-67
2022/09/06 09:30:10;;;;;;;1.75;0.40;;;;;;;20.91;50.11;101266.56;5086087;28;20035;-67
2022/09/06 09:32:39;;;;;;;0.57;0.50;;;;;;;21.04;50.17;101262.91;5074958;28;20043;-66
2022/09/06 09:35:14;;;;;;;0.60;0.60;;;;;;;21.08;50.11;101255.41;5079952;28;20101;-66
2022/09/06 09:37:40;;;;;;;0.98;0.50;;;;;;;20.87;50.05;101258.38;5087049;28;20040;-66
2022/09/06 09:40:13;;;;;;;1.77;0.65;;;;;;;20.81;50.25;101256.53;5078128;28;20449;-66
2022/09/06 09:42:39;;;;;;;0.88;0.52;;;;;;;20.91;50.53;101263.81;5083033;28;20115;-66
2022/09/06 09:45:29;;;;;;;0.93;0.60;;;;;;;21.05;50.50;101256.25;5087046;28;20035;-67
2022/09/06 09:47:55;;;;;;;0.85;0.70;;;;;;;21.14;50.70;101256.50;5090555;28;20493;-67
2022/09/06 09:50:26;;;;;;;0.82;0.65;;;;;;;21.19;50.48;101260.75;5086482;28;20496;-67
2022/09/06 09:52:52;;;;;;;0.50;0.50;;;;;;;21.29;49.66;101246.91;5092273;28;20036;-67
2022/09/06 09:55:22;;;;;;;0.73;0.50;;;;;;;21.36;49.83;101257.00;5086021;28;20632;-67
2022/09/06 09:57:49;;;;;;;0.55;0.50;;;;;;;21.36;49.96;101248.78;5091011;28;20384;-67
2022/09/06 10:00:33;;;;;;;1.73;0.70;;;;;;;21.50;49.71;101254.81;5076846;28;20044;-66
2022/09/06 10:02:58;;;;;;;0.73;0.57;;;;;;;21.50;49.76;101243.84;5074760;28;20032;-66
2022/09/06 10:05:24;;;;;;;2.85;0.65;;;;;;;21.50;49.82;101246.59;5082188;28;20032;-66
2022/09/06 10:07:53;;;;;;;1.35;0.43;;;;;;;21.60;49.44;101247.66;5080631;28;20077;-66
2022/09/06 10:10:27;;;;;;;1.58;0.60;;;;;;;21.65;49.63;101243.63;5080442;28;20028;-66
2022/09/06 10:13:18;;;;;;;1.42;0.60;;;;;;;21.71;49.66;101236.50;5088476;28;20063;-66
2022/09/06 10:15:44;;;;;;;1.17;0.70;;;;;;;21.73;49.36;101229.41;5083175;28;20451;-66
2022/09/06 10:18:28;;;;;;;0.50;0.50;;;;;;;21.75;49.25;101223.50;5086829;28;20032;-67
2022/09/06 10:21:04;;;;;;;3.60;0.75;;;;;;;21.61;50.40;101219.03;5071084;28;20441;-66
2022/09/06 10:24:01;;;;;;;0.90;0.60;;;;;;;21.58;50.28;101221.81;5089666;28;20040;-66
2022/09/06 10:26:37;;;;;;;10.73;0.98;;;;;;;21.58;50.64;101216.34;5081951;28;20043;-66
2022/09/06 10:29:05;;;;;;;2.35;0.70;;;;;;;21.62;50.47;101215.09;5082453;28;20050;-66
2022/09/06 10:31:55;;;;;;;2.42;0.90;;;;;;;21.64;50.55;101204.47;5081114;28;20036;-66
2022/09/06 10:34:56;;;;;;;0.60;0.52;;;;;;;21.74;50.26;101198.03;5081206;28;20446;-66
2022/09/06 10:37:27;;;;;;;2.45;0.50;;;;;;;21.60;50.24;101200.25;5088524;28;20412;-66
2022/09/06 10:40:09;;;;;;;;;;;;;;;21.62;50.39;101192.38;5088567;28;20028;-66
2022/09/06 10:42:54;;;;;;;1.95;0.80;;;;;;;21.57;50.36;101193.63;5073889;28;19916;-66
2022/09/06 10:45:26;;;;;;;1.45;0.60;;;;;;;21.63;49.80;101193.91;5075871;28;20032;-65
2022/09/06 10:48:08;;;;;;;1.50;0.60;;;;;;;21.57;50.43;101204.59;5082755;28;20055;-66
2022/09/06 10:50:43;;;;;;;1.95;0.60;;;;;;;21.58;50.19;101206.16;5080752;28;20036;-66
2022/09/06 10:53:18;;;;;;;3.65;0.95;;;;;;;21.66;49.95;101202.09;5088953;28;20481;-66
2022/09/06 10:55:51;;;;;;;2.33;0.82;;;;;;;21.67;49.99;101198.16;5089042;28;20032;-66
2022/09/06 10:58:30;;;;;;;1.92;0.70;;;;;;;21.66;50.31;101198.59;5068656;28;20043;-67
2022/09/06 11:00:55;;;;;;;1.63;0.70;;;;;;;21.69;50.57;101189.50;5086179;28;20448;-66
2022/09/06 11:03:38;;;;;;;0.82;0.60;;;;;;;21.82;50.51;101201.47;5086943;28;20065;-66
2022/09/06 11:06:07;;;;;;;1.23;0.63;;;;;;;21.73;49.41;101201.19;5089793;28;20705;-66
2022/09/06 11:08:45;;;;;;;1.67;0.68;;;;;;;21.85;49.55;101197.91;5071189;28;20040;-66
2022/09/06 11:11:27;;;;;;;0.57;0.50;;;;;;;21.96;49.69;101203.97;5082040;28;20477;-66
2022/09/06 11:13:52;;;;;;;1.48;0.57;;;;;;;22.03;49.27;101203.84;5080084;28;20585;-66
2022/09/06 11:16:24;;;;;;;1.20;0.52;;;;;;;21.98;49.40;101201.59;5089723;28;20119;-67
2022/09/06 11:19:00;;;;;;;0.90;0.50;;;;;;;22.08;48.76;101197.88;5089187;28;20032;-66
2022/09/06 11:21:44;;;;;;;0.65;0.50;;;;;;;22.16;48.89;101196.56;5085891;28;20028;-66
2022/09/06 11:24:12;;;;;;;0.63;0.60;;;;;;;22.14;47.99;101196.19;5083398;28;20081;-66
2022/09/06 11:26:59;;;;;;;0.60;0.47;;;;;;;22.11;47.85;101195.06;5080548;28;20044;-66
2022/09/06 11:29:28;;;;;;;1.52;0.75;;;;;;;22.18;48.42;101194.94;5088377;28;20039;-66
2022/09/06 11:32:23;;;;;;;0.60;0.47;;;;;;;22.19;48.03;101196.50;5082607;28;20492;-65
2022/09/06 11:34:55;;;;;;;0.82;0.50;;;;;;;22.20;47.95;101197.28;5081572;28;20051;-66
2022/09/06 11:37:31;;;;;;;0.85;0.45;;;;;;;22.24;48.25;101200.72;5079520;28;20451;-66
2022/09/06 11:40:16;;;;;;;0.50;0.50;;;;;;;22.23;48.43;101196.41;5090541;28;20513;-66